sensor_id;sensor_type;location;lat;lon;timestamp;P1;durP1;ratioP1;P2;durP2;ratioP2
69319;SDS011;56467;53.502;49.248;2022-08-14T00:00:23;1.15;;;0.68;;
69319;SDS011;56467;53.502;49.248;2022-08-14T00:02:50;1.02;;;0.57;;
69319;SDS011;56467;53.502;49.248;2022-08-14T00:05:17;0.80;;;0.73;;
69319;SDS011;56467;53.502;49.248;2022-08-14T00:07:45;0.85;;;0.65;;
69319;SDS011;56467;53.502;49.248;2022-08-14T00:10:14;0.95;;;0.70;;
69319;SDS011;56467;53.502;49.248;2022-08-14T00:12:45;0.70;;;0.70;;
69319;SDS011;56467;53.502;49.248;2022-08-14T00:15:21;0.70;;;0.70;;
69319;SDS011;56467;53.502;49.248;2022-08-14T00:17:51;0.60;;;0.60;;
69319;SDS011;56467;53.502;49.248;2022-08-14T00:20:18;1.00;;;0.70;;
69319;SDS011;56467;53.502;49.248;2022-08-14T00:22:47;0.55;;;0.55;;
69319;SDS011;56467;53.502;49.248;2022-08-14T00:25:13;0.95;;;0.70;;
69319;SDS011;56467;53.502;49.248;2022-08-14T00:27:38;1.23;;;0.70;;
69319;SDS011;56467;53.502;49.248;2022-08-14T00:30:05;0.90;;;0.60;;
69319;SDS011;56467;53.502;49.248;2022-08-14T00:32:33;0.70;;;0.70;;
69319;SDS011;56467;53.502;49.248;2022-08-14T00:34:59;0.60;;;0.60;;
69319;SDS011;56467;53.502;49.248;2022-08-14T00:37:29;0.70;;;0.70;;
69319;SDS011;56467;53.502;49.248;2022-08-14T00:39:55;1.13;;;0.60;;
69319;SDS011;56467;53.502;49.248;2022-08-14T00:42:21;1.00;;;0.70;;
69319;SDS011;56467;53.502;49.248;2022-08-14T00:44:48;0.70;;;0.70;;
69319;SDS011;56467;53.502;49.248;2022-08-14T00:47:15;1.10;;;0.70;;
69319;SDS011;56467;53.502;49.248;2022-08-14T00:49:42;1.23;;;0.70;;
69319;SDS011;56467;53.502;49.248;2022-08-14T00:52:12;0.82;;;0.60;;
69319;SDS011;56467;53.502;49.248;2022-08-14T00:54:41;0.75;;;0.75;;
69319;SDS011;56467;53.502;49.248;2022-08-14T00:57:07;0.95;;;0.68;;
69319;SDS011;56467;53.502;49.248;2022-08-14T00:59:33;0.60;;;0.60;;
69319;SDS011;56467;53.502;49.248;2022-08-14T01:02:00;0.88;;;0.70;;
69319;SDS011;56467;53.502;49.248;2022-08-14T01:04:27;0.77;;;0.60;;
69319;SDS011;56467;53.502;49.248;2022-08-14T01:06:56;1.15;;;0.70;;
69319;SDS011;56467;53.502;49.248;2022-08-14T01:09:22;1.60;;;0.60;;
69319;SDS011;56467;53.502;49.248;2022-08-14T01:11:49;0.60;;;0.60;;
69319;SDS011;56467;53.502;49.248;2022-08-14T01:14:16;0.90;;;0.70;;
69319;SDS011;56467;53.502;49.248;2022-08-14T01:16:43;0.88;;;0.73;;
69319;SDS011;56467;53.502;49.248;2022-08-14T01:19:09;0.82;;;0.70;;
69319;SDS011;56467;53.502;49.248;2022-08-14T01:21:53;0.70;;;0.70;;
69319;SDS011;56467;53.502;49.248;2022-08-14T01:24:20;0.70;;;0.70;;
69319;SDS011;56467;53.502;49.248;2022-08-14T01:26:47;0.70;;;0.70;;
69319;SDS011;56467;53.502;49.248;2022-08-14T01:29:12;1.55;;;0.75;;
69319;SDS011;56467;53.502;49.248;2022-08-14T01:31:39;1.38;;;0.70;;
69319;SDS011;56467;53.502;49.248;2022-08-14T01:34:16;0.75;;;0.60;;
69319;SDS011;56467;53.502;49.248;2022-08-14T01:36:44;0.70;;;0.70;;
69319;SDS011;56467;53.502;49.248;2022-08-14T01:39:11;0.52;;;0.52;;
69319;SDS011;56467;53.502;49.248;2022-08-14T01:41:40;0.65;;;0.60;;
69319;SDS011;56467;53.502;49.248;2022-08-14T01:44:08;0.70;;;0.70;;
69319;SDS011;56467;53.502;49.248;2022-08-14T01:46:38;0.95;;;0.85;;
69319;SDS011;56467;53.502;49.248;2022-08-14T01:49:06;2.15;;;0.60;;
69319;SDS011;56467;53.502;49.248;2022-08-14T01:51:34;0.70;;;0.63;;
69319;SDS011;56467;53.502;49.248;2022-08-14T01:54:08;0.90;;;0.60;;
69319;SDS011;56467;53.502;49.248;2022-08-14T01:56:36;0.57;;;0.57;;
69319;SDS011;56467;53.502;49.248;2022-08-14T01:59:04;0.60;;;0.60;;
69319;SDS011;56467;53.502;49.248;2022-08-14T02:01:53;0.70;;;0.70;;
69319;SDS011;56467;53.502;49.248;2022-08-14T02:04:22;0.60;;;0.60;;
69319;SDS011;56467;53.502;49.248;2022-08-14T02:06:49;0.73;;;0.73;;
69319;SDS011;56467;53.502;49.248;2022-08-14T02:09:16;0.80;;;0.80;;
69319;SDS011;56467;53.502;49.248;2022-08-14T02:11:43;0.93;;;0.80;;
69319;SDS011;56467;53.502;49.248;2022-08-14T02:14:10;0.68;;;0.68;;
69319;SDS011;56467;53.502;49.248;2022-08-14T02:16:40;0.70;;;0.70;;
69319;SDS011;56467;53.502;49.248;2022-08-14T02:19:09;0.60;;;0.60;;
69319;SDS011;56467;53.502;49.248;2022-08-14T02:21:38;0.60;;;0.60;;
69319;SDS011;56467;53.502;49.248;2022-08-14T02:24:04;0.68;;;0.63;;
69319;SDS011;56467;53.502;49.248;2022-08-14T02:26:32;0.77;;;0.60;;
69319;SDS011;56467;53.502;49.248;2022-08-14T02:29:00;0.90;;;0.70;;
69319;SDS011;56467;53.502;49.248;2022-08-14T02:31:30;0.60;;;0.60;;
69319;SDS011;56467;53.502;49.248;2022-08-14T02:33:59;0.65;;;0.63;;
69319;SDS011;56467;53.502;49.248;2022-08-14T02:36:29;0.75;;;0.60;;
69319;SDS011;56467;53.502;49.248;2022-08-14T02:38:54;0.60;;;0.60;;
69319;SDS011;56467;53.502;49.248;2022-08-14T02:41:21;0.82;;;0.70;;
69319;SDS011;56467;53.502;49.248;2022-08-14T02:43:47;0.90;;;0.68;;
69319;SDS011;56467;53.502;49.248;2022-08-14T02:46:13;0.60;;;0.50;;
69319;SDS011;56467;53.502;49.248;2022-08-14T02:48:40;0.80;;;0.80;;
69319;SDS011;56467;53.502;49.248;2022-08-14T02:51:11;0.63;;;0.63;;
69319;SDS011;56467;53.502;49.248;2022-08-14T02:53:39;0.57;;;0.57;;
69319;SDS011;56467;53.502;49.248;2022-08-14T02:56:08;0.52;;;0.52;;
69319;SDS011;56467;53.502;49.248;2022-08-14T02:58:39;0.70;;;0.60;;
69319;SDS011;56467;53.502;49.248;2022-08-14T03:01:11;0.60;;;0.60;;
69319;SDS011;56467;53.502;49.248;2022-08-14T03:03:41;0.70;;;0.70;;
69319;SDS011;56467;53.502;49.248;2022-08-14T03:06:09;0.70;;;0.70;;
69319;SDS011;56467;53.502;49.248;2022-08-14T03:08:36;0.77;;;0.77;;
69319;SDS011;56467;53.502;49.248;2022-08-14T03:11:03;0.55;;;0.55;;
69319;SDS011;56467;53.502;49.248;2022-08-14T03:13:38;1.00;;;0.90;;
69319;SDS011;56467;53.502;49.248;2022-08-14T03:16:09;0.70;;;0.60;;
69319;SDS011;56467;53.502;49.248;2022-08-14T03:18:40;0.80;;;0.70;;
69319;SDS011;56467;53.502;49.248;2022-08-14T03:21:07;0.73;;;0.70;;
69319;SDS011;56467;53.502;49.248;2022-08-14T03:23:37;0.68;;;0.68;;
69319;SDS011;56467;53.502;49.248;2022-08-14T03:26:04;0.65;;;0.65;;
69319;SDS011;56467;53.502;49.248;2022-08-14T03:28:33;0.60;;;0.60;;
69319;SDS011;56467;53.502;49.248;2022-08-14T03:30:59;0.77;;;0.70;;
69319;SDS011;56467;53.502;49.248;2022-08-14T03:33:25;1.02;;;0.50;;
69319;SDS011;56467;53.502;49.248;2022-08-14T03:35:54;0.52;;;0.52;;
69319;SDS011;56467;53.502;49.248;2022-08-14T03:38:20;0.70;;;0.70;;
69319;SDS011;56467;53.502;49.248;2022-08-14T03:40:45;0.80;;;0.70;;
69319;SDS011;56467;53.502;49.248;2022-08-14T03:43:11;0.82;;;0.80;;
69319;SDS011;56467;53.502;49.248;2022-08-14T03:45:38;0.70;;;0.68;;
69319;SDS011;56467;53.502;49.248;2022-08-14T03:48:14;0.65;;;0.60;;
69319;SDS011;56467;53.502;49.248;2022-08-14T03:50:48;1.38;;;0.60;;
69319;SDS011;56467;53.502;49.248;2022-08-14T03:53:18;0.60;;;0.60;;
69319;SDS011;56467;53.502;49.248;2022-08-14T03:55:44;1.00;;;0.70;;
69319;SDS011;56467;53.502;49.248;2022-08-14T03:58:11;1.17;;;0.95;;
69319;SDS011;56467;53.502;49.248;2022-08-14T04:00:37;0.90;;;0.80;;
69319;SDS011;56467;53.502;49.248;2022-08-14T04:03:05;1.00;;;0.70;;
69319;SDS011;56467;53.502;49.248;2022-08-14T04:05:32;0.70;;;0.70;;
69319;SDS011;56467;53.502;49.248;2022-08-14T04:07:58;1.02;;;0.80;;
69319;SDS011;56467;53.502;49.248;2022-08-14T04:10:24;1.90;;;0.60;;
69319;SDS011;56467;53.502;49.248;2022-08-14T04:12:51;0.80;;;0.80;;
69319;SDS011;56467;53.502;49.248;2022-08-14T04:15:17;1.00;;;0.80;;
69319;SDS011;56467;53.502;49.248;2022-08-14T04:17:45;0.60;;;0.60;;
69319;SDS011;56467;53.502;49.248;2022-08-14T04:20:11;0.60;;;0.60;;
69319;SDS011;56467;53.502;49.248;2022-08-14T04:22:37;0.90;;;0.65;;
69319;SDS011;56467;53.502;49.248;2022-08-14T04:25:08;1.25;;;0.60;;
69319;SDS011;56467;53.502;49.248;2022-08-14T04:27:34;1.13;;;0.60;;
69319;SDS011;56467;53.502;49.248;2022-08-14T04:30:00;1.40;;;0.70;;
69319;SDS011;56467;53.502;49.248;2022-08-14T04:32:28;0.80;;;0.70;;
69319;SDS011;56467;53.502;49.248;2022-08-14T04:34:53;2.03;;;0.60;;
69319;SDS011;56467;53.502;49.248;2022-08-14T04:37:20;0.60;;;0.60;;
69319;SDS011;56467;53.502;49.248;2022-08-14T04:40:06;1.48;;;0.70;;
69319;SDS011;56467;53.502;49.248;2022-08-14T04:42:50;0.70;;;0.68;;
69319;SDS011;56467;53.502;49.248;2022-08-14T04:45:35;0.65;;;0.65;;
69319;SDS011;56467;53.502;49.248;2022-08-14T04:48:05;1.00;;;0.70;;
69319;SDS011;56467;53.502;49.248;2022-08-14T04:50:42;0.68;;;0.68;;
69319;SDS011;56467;53.502;49.248;2022-08-14T04:55:43;0.75;;;0.75;;
69319;SDS011;56467;53.502;49.248;2022-08-14T04:58:17;0.82;;;0.65;;
69319;SDS011;56467;53.502;49.248;2022-08-14T05:00:45;0.60;;;0.60;;
69319;SDS011;56467;53.502;49.248;2022-08-14T05:03:15;0.98;;;0.70;;
69319;SDS011;56467;53.502;49.248;2022-08-14T05:05:46;0.60;;;0.60;;
69319;SDS011;56467;53.502;49.248;2022-08-14T05:08:13;0.70;;;0.70;;
69319;SDS011;56467;53.502;49.248;2022-08-14T05:10:39;0.80;;;0.70;;
69319;SDS011;56467;53.502;49.248;2022-08-14T05:13:08;0.70;;;0.70;;
69319;SDS011;56467;53.502;49.248;2022-08-14T05:15:35;1.08;;;0.70;;
69319;SDS011;56467;53.502;49.248;2022-08-14T05:18:02;0.77;;;0.63;;
69319;SDS011;56467;53.502;49.248;2022-08-14T05:20:40;0.70;;;0.70;;
69319;SDS011;56467;53.502;49.248;2022-08-14T05:23:11;0.98;;;0.70;;
69319;SDS011;56467;53.502;49.248;2022-08-14T05:25:38;0.85;;;0.70;;
69319;SDS011;56467;53.502;49.248;2022-08-14T05:28:23;0.80;;;0.70;;
69319;SDS011;56467;53.502;49.248;2022-08-14T05:30:54;0.95;;;0.90;;
69319;SDS011;56467;53.502;49.248;2022-08-14T05:33:26;0.88;;;0.70;;
69319;SDS011;56467;53.502;49.248;2022-08-14T05:35:55;0.70;;;0.70;;
69319;SDS011;56467;53.502;49.248;2022-08-14T05:38:29;0.50;;;0.50;;
69319;SDS011;56467;53.502;49.248;2022-08-14T05:41:02;0.70;;;0.65;;
69319;SDS011;56467;53.502;49.248;2022-08-14T05:43:29;0.70;;;0.70;;
69319;SDS011;56467;53.502;49.248;2022-08-14T05:45:56;0.65;;;0.65;;
69319;SDS011;56467;53.502;49.248;2022-08-14T05:48:23;0.80;;;0.80;;
69319;SDS011;56467;53.502;49.248;2022-08-14T05:50:50;0.60;;;0.60;;
69319;SDS011;56467;53.502;49.248;2022-08-14T05:53:19;0.65;;;0.63;;
69319;SDS011;56467;53.502;49.248;2022-08-14T05:55:49;0.88;;;0.88;;
69319;SDS011;56467;53.502;49.248;2022-08-14T05:58:16;0.70;;;0.70;;
69319;SDS011;56467;53.502;49.248;2022-08-14T06:00:42;0.88;;;0.82;;
69319;SDS011;56467;53.502;49.248;2022-08-14T06:03:11;0.73;;;0.73;;
69319;SDS011;56467;53.502;49.248;2022-08-14T06:05:41;0.60;;;0.60;;
69319;SDS011;56467;53.502;49.248;2022-08-14T06:10:41;0.95;;;0.80;;
69319;SDS011;56467;53.502;49.248;2022-08-14T06:13:08;0.95;;;0.70;;
69319;SDS011;56467;53.502;49.248;2022-08-14T06:15:33;0.80;;;0.70;;
69319;SDS011;56467;53.502;49.248;2022-08-14T06:17:59;0.80;;;0.80;;
69319;SDS011;56467;53.502;49.248;2022-08-14T06:20:25;0.70;;;0.70;;
69319;SDS011;56467;53.502;49.248;2022-08-14T06:22:51;0.70;;;0.70;;
69319;SDS011;56467;53.502;49.248;2022-08-14T06:25:17;0.60;;;0.60;;
69319;SDS011;56467;53.502;49.248;2022-08-14T06:27:44;0.80;;;0.80;;
69319;SDS011;56467;53.502;49.248;2022-08-14T06:30:14;1.00;;;0.90;;
69319;SDS011;56467;53.502;49.248;2022-08-14T06:32:42;0.80;;;0.80;;
69319;SDS011;56467;53.502;49.248;2022-08-14T06:35:08;0.95;;;0.70;;
69319;SDS011;56467;53.502;49.248;2022-08-14T06:40:22;0.88;;;0.70;;
69319;SDS011;56467;53.502;49.248;2022-08-14T06:42:56;0.65;;;0.63;;
69319;SDS011;56467;53.502;49.248;2022-08-14T06:45:23;0.90;;;0.80;;
69319;SDS011;56467;53.502;49.248;2022-08-14T06:47:49;0.80;;;0.80;;
69319;SDS011;56467;53.502;49.248;2022-08-14T06:50:16;1.30;;;0.70;;
69319;SDS011;56467;53.502;49.248;2022-08-14T06:52:44;0.70;;;0.70;;
69319;SDS011;56467;53.502;49.248;2022-08-14T06:55:10;0.77;;;0.70;;
69319;SDS011;56467;53.502;49.248;2022-08-14T06:57:39;2.40;;;0.60;;
69319;SDS011;56467;53.502;49.248;2022-08-14T07:00:08;1.20;;;0.70;;
69319;SDS011;56467;53.502;49.248;2022-08-14T07:02:35;0.70;;;0.70;;
69319;SDS011;56467;53.502;49.248;2022-08-14T07:05:20;0.88;;;0.88;;
69319;SDS011;56467;53.502;49.248;2022-08-14T07:08:04;0.80;;;0.65;;
69319;SDS011;56467;53.502;49.248;2022-08-14T07:10:31;0.60;;;0.60;;
69319;SDS011;56467;53.502;49.248;2022-08-14T07:12:57;0.60;;;0.60;;
69319;SDS011;56467;53.502;49.248;2022-08-14T07:15:23;0.60;;;0.60;;
69319;SDS011;56467;53.502;49.248;2022-08-14T07:17:49;1.02;;;0.70;;
69319;SDS011;56467;53.502;49.248;2022-08-14T07:20:15;0.60;;;0.60;;
69319;SDS011;56467;53.502;49.248;2022-08-14T07:22:47;0.68;;;0.68;;
69319;SDS011;56467;53.502;49.248;2022-08-14T07:25:14;0.60;;;0.55;;
69319;SDS011;56467;53.502;49.248;2022-08-14T07:27:41;0.70;;;0.70;;
69319;SDS011;56467;53.502;49.248;2022-08-14T07:30:07;0.60;;;0.60;;
69319;SDS011;56467;53.502;49.248;2022-08-14T07:32:34;0.70;;;0.70;;
69319;SDS011;56467;53.502;49.248;2022-08-14T07:34:59;0.60;;;0.60;;
69319;SDS011;56467;53.502;49.248;2022-08-14T07:37:26;0.60;;;0.60;;
69319;SDS011;56467;53.502;49.248;2022-08-14T07:39:51;0.95;;;0.73;;
69319;SDS011;56467;53.502;49.248;2022-08-14T07:42:17;0.70;;;0.65;;
69319;SDS011;56467;53.502;49.248;2022-08-14T07:44:43;0.63;;;0.63;;
69319;SDS011;56467;53.502;49.248;2022-08-14T07:47:09;0.88;;;0.70;;
69319;SDS011;56467;53.502;49.248;2022-08-14T07:49:35;0.70;;;0.70;;
69319;SDS011;56467;53.502;49.248;2022-08-14T07:52:01;0.60;;;0.60;;
69319;SDS011;56467;53.502;49.248;2022-08-14T07:54:28;0.70;;;0.60;;
69319;SDS011;56467;53.502;49.248;2022-08-14T07:56:55;0.80;;;0.70;;
69319;SDS011;56467;53.502;49.248;2022-08-14T07:59:24;0.68;;;0.68;;
69319;SDS011;56467;53.502;49.248;2022-08-14T08:01:50;0.65;;;0.60;;
69319;SDS011;56467;53.502;49.248;2022-08-14T08:04:23;0.90;;;0.70;;
69319;SDS011;56467;53.502;49.248;2022-08-14T08:06:53;1.13;;;0.85;;
69319;SDS011;56467;53.502;49.248;2022-08-14T08:09:23;0.80;;;0.70;;
69319;SDS011;56467;53.502;49.248;2022-08-14T08:11:51;0.53;;;0.53;;
69319;SDS011;56467;53.502;49.248;2022-08-14T08:14:17;0.60;;;0.60;;
69319;SDS011;56467;53.502;49.248;2022-08-14T08:16:44;0.60;;;0.60;;
69319;SDS011;56467;53.502;49.248;2022-08-14T08:19:11;0.90;;;0.60;;
69319;SDS011;56467;53.502;49.248;2022-08-14T08:21:38;0.70;;;0.65;;
69319;SDS011;56467;53.502;49.248;2022-08-14T08:24:04;0.80;;;0.80;;
69319;SDS011;56467;53.502;49.248;2022-08-14T08:26:30;1.40;;;1.10;;
69319;SDS011;56467;53.502;49.248;2022-08-14T08:28:56;2.22;;;1.33;;
69319;SDS011;56467;53.502;49.248;2022-08-14T08:31:23;1.70;;;1.60;;
69319;SDS011;56467;53.502;49.248;2022-08-14T08:33:52;2.30;;;1.67;;
69319;SDS011;56467;53.502;49.248;2022-08-14T08:36:18;2.88;;;1.80;;
69319;SDS011;56467;53.502;49.248;2022-08-14T08:38:48;2.25;;;1.80;;
69319;SDS011;56467;53.502;49.248;2022-08-14T08:41:14;3.80;;;1.75;;
69319;SDS011;56467;53.502;49.248;2022-08-14T08:43:40;3.38;;;2.10;;
69319;SDS011;56467;53.502;49.248;2022-08-14T08:46:08;3.97;;;2.00;;
69319;SDS011;56467;53.502;49.248;2022-08-14T08:48:52;3.08;;;1.95;;
69319;SDS011;56467;53.502;49.248;2022-08-14T08:51:31;5.53;;;2.20;;
69319;SDS011;56467;53.502;49.248;2022-08-14T08:56:34;4.55;;;2.10;;
69319;SDS011;56467;53.502;49.248;2022-08-14T08:59:02;4.72;;;2.10;;
69319;SDS011;56467;53.502;49.248;2022-08-14T09:01:40;5.43;;;2.33;;
69319;SDS011;56467;53.502;49.248;2022-08-14T09:04:05;4.13;;;2.10;;
69319;SDS011;56467;53.502;49.248;2022-08-14T09:06:41;4.82;;;2.10;;
69319;SDS011;56467;53.502;49.248;2022-08-14T09:09:24;3.42;;;2.20;;
69319;SDS011;56467;53.502;49.248;2022-08-14T09:11:51;4.38;;;2.20;;
69319;SDS011;56467;53.502;49.248;2022-08-14T09:14:22;3.92;;;2.10;;
69319;SDS011;56467;53.502;49.248;2022-08-14T09:16:49;3.33;;;2.10;;
69319;SDS011;56467;53.502;49.248;2022-08-14T09:19:15;4.75;;;2.00;;
69319;SDS011;56467;53.502;49.248;2022-08-14T09:21:41;3.95;;;2.05;;
69319;SDS011;56467;53.502;49.248;2022-08-14T09:24:08;3.90;;;2.00;;
69319;SDS011;56467;53.502;49.248;2022-08-14T09:26:35;4.40;;;1.95;;
69319;SDS011;56467;53.502;49.248;2022-08-14T09:29:02;3.88;;;1.80;;
69319;SDS011;56467;53.502;49.248;2022-08-14T09:31:29;3.85;;;2.00;;
69319;SDS011;56467;53.502;49.248;2022-08-14T09:44:53;2.50;;;1.95;;
69319;SDS011;56467;53.502;49.248;2022-08-14T09:47:46;2.22;;;1.77;;
69319;SDS011;56467;53.502;49.248;2022-08-14T09:52:49;3.38;;;1.77;;
69319;SDS011;56467;53.502;49.248;2022-08-14T09:55:18;2.47;;;1.70;;
69319;SDS011;56467;53.502;49.248;2022-08-14T09:57:45;5.30;;;2.40;;
69319;SDS011;56467;53.502;49.248;2022-08-14T10:00:12;5.20;;;2.40;;
69319;SDS011;56467;53.502;49.248;2022-08-14T10:02:52;4.43;;;2.55;;
69319;SDS011;56467;53.502;49.248;2022-08-14T10:05:33;3.95;;;2.47;;
69319;SDS011;56467;53.502;49.248;2022-08-14T10:08:01;4.82;;;2.50;;
69319;SDS011;56467;53.502;49.248;2022-08-14T10:13:05;4.75;;;2.55;;
69319;SDS011;56467;53.502;49.248;2022-08-14T10:15:36;4.30;;;2.33;;
69319;SDS011;56467;53.502;49.248;2022-08-14T10:18:12;3.42;;;2.20;;
69319;SDS011;56467;53.502;49.248;2022-08-14T10:20:58;3.85;;;2.17;;
69319;SDS011;56467;53.502;49.248;2022-08-14T10:23:38;3.03;;;2.00;;
69319;SDS011;56467;53.502;49.248;2022-08-14T10:26:05;3.10;;;2.17;;
69319;SDS011;56467;53.502;49.248;2022-08-14T10:28:39;3.55;;;1.88;;
69319;SDS011;56467;53.502;49.248;2022-08-14T10:31:42;3.13;;;1.90;;
69319;SDS011;56467;53.502;49.248;2022-08-14T10:34:08;2.80;;;2.00;;
69319;SDS011;56467;53.502;49.248;2022-08-14T10:36:42;4.43;;;1.95;;
69319;SDS011;56467;53.502;49.248;2022-08-14T10:39:18;2.17;;;1.70;;
69319;SDS011;56467;53.502;49.248;2022-08-14T10:41:45;3.03;;;1.90;;
69319;SDS011;56467;53.502;49.248;2022-08-14T10:44:15;3.45;;;2.00;;
69319;SDS011;56467;53.502;49.248;2022-08-14T10:46:44;2.40;;;1.60;;
69319;SDS011;56467;53.502;49.248;2022-08-14T10:49:20;2.85;;;1.60;;
69319;SDS011;56467;53.502;49.248;2022-08-14T10:54:32;2.30;;;1.50;;
69319;SDS011;56467;53.502;49.248;2022-08-14T10:59:48;2.97;;;1.67;;
69319;SDS011;56467;53.502;49.248;2022-08-14T11:07:40;3.03;;;2.15;;
69319;SDS011;56467;53.502;49.248;2022-08-14T11:10:19;3.00;;;2.00;;
69319;SDS011;56467;53.502;49.248;2022-08-14T11:12:46;3.97;;;2.40;;
69319;SDS011;56467;53.502;49.248;2022-08-14T11:15:18;4.45;;;1.83;;
69319;SDS011;56467;53.502;49.248;2022-08-14T11:17:45;2.88;;;1.80;;
69319;SDS011;56467;53.502;49.248;2022-08-14T11:20:14;2.55;;;1.88;;
69319;SDS011;56467;53.502;49.248;2022-08-14T11:22:42;2.85;;;1.80;;
69319;SDS011;56467;53.502;49.248;2022-08-14T11:25:09;3.33;;;1.77;;
69319;SDS011;56467;53.502;49.248;2022-08-14T11:27:38;3.00;;;1.80;;
69319;SDS011;56467;53.502;49.248;2022-08-14T11:30:08;2.65;;;1.67;;
69319;SDS011;56467;53.502;49.248;2022-08-14T11:32:37;3.05;;;1.60;;
69319;SDS011;56467;53.502;49.248;2022-08-14T11:35:05;2.42;;;1.50;;
69319;SDS011;56467;53.502;49.248;2022-08-14T11:37:31;2.33;;;1.67;;
69319;SDS011;56467;53.502;49.248;2022-08-14T11:39:59;2.25;;;1.60;;
69319;SDS011;56467;53.502;49.248;2022-08-14T11:42:26;2.40;;;1.73;;
69319;SDS011;56467;53.502;49.248;2022-08-14T11:44:53;2.75;;;1.52;;
69319;SDS011;56467;53.502;49.248;2022-08-14T11:47:22;1.95;;;1.45;;
69319;SDS011;56467;53.502;49.248;2022-08-14T11:49:48;3.15;;;1.60;;
69319;SDS011;56467;53.502;49.248;2022-08-14T11:52:15;2.25;;;1.45;;
69319;SDS011;56467;53.502;49.248;2022-08-14T11:54:44;1.73;;;1.30;;
69319;SDS011;56467;53.502;49.248;2022-08-14T11:57:21;1.73;;;1.40;;
69319;SDS011;56467;53.502;49.248;2022-08-14T11:59:47;3.45;;;1.75;;
69319;SDS011;56467;53.502;49.248;2022-08-14T12:02:16;8.77;;;2.90;;
69319;SDS011;56467;53.502;49.248;2022-08-14T12:04:51;9.45;;;3.28;;
69319;SDS011;56467;53.502;49.248;2022-08-14T12:07:18;7.68;;;3.20;;
69319;SDS011;56467;53.502;49.248;2022-08-14T12:09:45;7.57;;;3.20;;
69319;SDS011;56467;53.502;49.248;2022-08-14T12:12:19;4.55;;;2.25;;
69319;SDS011;56467;53.502;49.248;2022-08-14T12:14:56;5.50;;;2.70;;
69319;SDS011;56467;53.502;49.248;2022-08-14T12:17:31;6.80;;;2.60;;
69319;SDS011;56467;53.502;49.248;2022-08-14T12:22:38;4.78;;;2.38;;
69319;SDS011;56467;53.502;49.248;2022-08-14T12:25:08;4.50;;;2.05;;
69319;SDS011;56467;53.502;49.248;2022-08-14T12:27:47;3.53;;;2.35;;
69319;SDS011;56467;53.502;49.248;2022-08-14T12:30:35;4.35;;;2.17;;
69319;SDS011;56467;53.502;49.248;2022-08-14T12:33:03;3.30;;;1.90;;
69319;SDS011;56467;53.502;49.248;2022-08-14T12:35:39;5.18;;;2.20;;
69319;SDS011;56467;53.502;49.248;2022-08-14T12:38:17;4.45;;;2.53;;
69319;SDS011;56467;53.502;49.248;2022-08-14T12:43:13;3.63;;;2.10;;
69319;SDS011;56467;53.502;49.248;2022-08-14T12:45:44;4.85;;;2.60;;
69319;SDS011;56467;53.502;49.248;2022-08-14T12:48:16;4.47;;;2.40;;
69319;SDS011;56467;53.502;49.248;2022-08-14T12:50:43;3.78;;;2.22;;
69319;SDS011;56467;53.502;49.248;2022-08-14T12:53:10;4.00;;;2.25;;
69319;SDS011;56467;53.502;49.248;2022-08-14T12:55:40;3.45;;;2.10;;
69319;SDS011;56467;53.502;49.248;2022-08-14T12:58:08;4.00;;;2.20;;
69319;SDS011;56467;53.502;49.248;2022-08-14T13:00:38;3.03;;;2.00;;
69319;SDS011;56467;53.502;49.248;2022-08-14T13:03:24;3.53;;;1.90;;
69319;SDS011;56467;53.502;49.248;2022-08-14T13:05:51;2.78;;;1.85;;
69319;SDS011;56467;53.502;49.248;2022-08-14T13:08:18;2.95;;;1.77;;
69319;SDS011;56467;53.502;49.248;2022-08-14T13:10:45;3.05;;;1.92;;
69319;SDS011;56467;53.502;49.248;2022-08-14T13:13:11;2.67;;;1.63;;
69319;SDS011;56467;53.502;49.248;2022-08-14T13:15:43;4.05;;;1.67;;
69319;SDS011;56467;53.502;49.248;2022-08-14T13:18:12;2.58;;;1.70;;
69319;SDS011;56467;53.502;49.248;2022-08-14T13:20:39;3.13;;;1.63;;
69319;SDS011;56467;53.502;49.248;2022-08-14T13:23:06;3.08;;;1.63;;
69319;SDS011;56467;53.502;49.248;2022-08-14T13:25:33;2.70;;;1.60;;
69319;SDS011;56467;53.502;49.248;2022-08-14T13:28:02;3.10;;;1.75;;
69319;SDS011;56467;53.502;49.248;2022-08-14T13:30:30;3.05;;;1.60;;
69319;SDS011;56467;53.502;49.248;2022-08-14T13:32:56;3.05;;;1.70;;
69319;SDS011;56467;53.502;49.248;2022-08-14T13:35:22;2.20;;;1.50;;
69319;SDS011;56467;53.502;49.248;2022-08-14T13:37:49;2.28;;;1.50;;
69319;SDS011;56467;53.502;49.248;2022-08-14T13:40:16;2.33;;;1.50;;
69319;SDS011;56467;53.502;49.248;2022-08-14T13:42:44;3.28;;;1.70;;
69319;SDS011;56467;53.502;49.248;2022-08-14T13:45:11;2.55;;;1.40;;
69319;SDS011;56467;53.502;49.248;2022-08-14T13:47:39;2.00;;;1.50;;
69319;SDS011;56467;53.502;49.248;2022-08-14T13:50:06;2.72;;;1.80;;
69319;SDS011;56467;53.502;49.248;2022-08-14T13:52:41;3.03;;;1.55;;
69319;SDS011;56467;53.502;49.248;2022-08-14T13:55:21;3.15;;;1.80;;
69319;SDS011;56467;53.502;49.248;2022-08-14T13:57:52;4.32;;;1.90;;
69319;SDS011;56467;53.502;49.248;2022-08-14T14:00:21;3.75;;;1.60;;
69319;SDS011;56467;53.502;49.248;2022-08-14T14:02:48;3.10;;;1.90;;
69319;SDS011;56467;53.502;49.248;2022-08-14T14:05:16;4.63;;;1.92;;
69319;SDS011;56467;53.502;49.248;2022-08-14T14:07:43;3.28;;;1.80;;
69319;SDS011;56467;53.502;49.248;2022-08-14T14:10:11;4.07;;;1.70;;
69319;SDS011;56467;53.502;49.248;2022-08-14T14:12:39;3.10;;;1.70;;
69319;SDS011;56467;53.502;49.248;2022-08-14T14:15:09;2.53;;;1.50;;
69319;SDS011;56467;53.502;49.248;2022-08-14T14:17:38;4.28;;;1.77;;
69319;SDS011;56467;53.502;49.248;2022-08-14T14:20:04;4.15;;;1.65;;
69319;SDS011;56467;53.502;49.248;2022-08-14T14:22:31;3.22;;;1.55;;
69319;SDS011;56467;53.502;49.248;2022-08-14T14:24:57;3.47;;;1.60;;
69319;SDS011;56467;53.502;49.248;2022-08-14T14:27:26;3.63;;;1.52;;
69319;SDS011;56467;53.502;49.248;2022-08-14T14:29:53;3.08;;;1.60;;
69319;SDS011;56467;53.502;49.248;2022-08-14T14:32:24;2.88;;;1.50;;
69319;SDS011;56467;53.502;49.248;2022-08-14T14:34:53;3.15;;;1.50;;
69319;SDS011;56467;53.502;49.248;2022-08-14T14:37:23;3.42;;;1.60;;
69319;SDS011;56467;53.502;49.248;2022-08-14T14:39:50;3.90;;;1.60;;
69319;SDS011;56467;53.502;49.248;2022-08-14T14:42:17;5.38;;;1.90;;
69319;SDS011;56467;53.502;49.248;2022-08-14T14:44:43;4.75;;;1.92;;
69319;SDS011;56467;53.502;49.248;2022-08-14T14:47:12;4.45;;;1.85;;
69319;SDS011;56467;53.502;49.248;2022-08-14T14:49:40;7.80;;;1.98;;
69319;SDS011;56467;53.502;49.248;2022-08-14T14:52:07;4.50;;;1.95;;
69319;SDS011;56467;53.502;49.248;2022-08-14T14:54:34;6.63;;;2.28;;
69319;SDS011;56467;53.502;49.248;2022-08-14T14:57:00;5.43;;;2.10;;
69319;SDS011;56467;53.502;49.248;2022-08-14T14:59:31;6.03;;;1.85;;
69319;SDS011;56467;53.502;49.248;2022-08-14T15:01:58;5.85;;;1.90;;
69319;SDS011;56467;53.502;49.248;2022-08-14T15:04:36;4.93;;;1.80;;
69319;SDS011;56467;53.502;49.248;2022-08-14T15:07:03;8.02;;;2.33;;
69319;SDS011;56467;53.502;49.248;2022-08-14T15:09:32;6.63;;;1.92;;
69319;SDS011;56467;53.502;49.248;2022-08-14T15:11:58;10.30;;;2.50;;
69319;SDS011;56467;53.502;49.248;2022-08-14T15:14:24;18.38;;;3.97;;
69319;SDS011;56467;53.502;49.248;2022-08-14T15:16:50;19.23;;;5.15;;
69319;SDS011;56467;53.502;49.248;2022-08-14T15:19:16;25.45;;;6.43;;
69319;SDS011;56467;53.502;49.248;2022-08-14T15:21:42;24.00;;;6.53;;
69319;SDS011;56467;53.502;49.248;2022-08-14T15:24:08;28.02;;;7.22;;
69319;SDS011;56467;53.502;49.248;2022-08-14T15:26:33;26.15;;;6.50;;